Akwesasne, New York
Current Conditions -  °F | °C
As of 11:53 PM on Monday 26 Jan 2015 (Local Time) from KMSS Reporting Station
Broken Clouds Broken Clouds  
Wind Chill: -12°   Ceiling: 9500
Heat Index:   Visibility: 10mi
Dew Point: -5°   Wind: 12mph
Humidity: 66%   Direction: 50°NE
Pressure: 30.13"   Gusts: NA
Location:  44.9835°N, 74.6107°W
Report Text: KMSS 270453Z AUTO 05010KT 10SM BKN095 M16/M21 A3013 RMK AO2 SLP214 T11561206 411391261
Loading
Personal Weather Stations






























Interactive Weather Map New forecast layout! Learn more

10-Day Weather Forecast

Advertisements
Track Severe Weather on mobile